Time;durP1;ratioP1;P1;durP2;ratioP2;P2;SDS_P1;SDS_P2;PMS_P1;PMS_P2;Temp;Humidity;BMP_temperature;BMP_pressure;BME280_temperature;BME280_humidity;BME280_pressure;Samples;Min_cycle;Max_cycle;Signal;HPM_P1;HPM_P2
2021/04/13 00:01:19;;;;;;;36.08;27.77;;;;;;;9.14;68.86;99628.31;1755837;81;21086;-62
2021/04/13 00:03:57;;;;;;;38.10;27.02;;;;;;;9.14;68.89;99627.46;1755901;80;21143;-62
2021/04/13 00:06:33;;;;;;;34.75;25.15;;;;;;;9.11;68.98;99624.52;1755912;80;21082;-62
2021/04/13 00:09:23;;;;;;;38.33;26.05;;;;;;;9.12;69.03;99624.91;1748251;81;21073;-62
2021/04/13 00:11:58;;;;;;;34.65;26.62;;;;;;;9.13;69.08;99624.47;1728641;81;21437;-62
2021/04/13 00:14:36;;;;;;;33.92;26.12;;;;;;;9.14;69.28;99631.35;1705766;81;21109;-62
2021/04/13 00:17:11;;;;;;;39.23;27.48;;;;;;;9.13;69.37;99629.20;1755869;80;21015;-62
2021/04/13 00:19:57;;;;;;;38.60;27.82;;;;;;;9.12;69.44;99635.74;1755863;81;21065;-62
2021/04/13 00:22:25;;;;;;;40.33;28.83;;;;;;;9.09;69.57;99634.55;1755877;81;21094;-62
2021/04/13 00:24:53;;;;;;;37.33;29.05;;;;;;;9.06;69.67;99631.59;1728629;81;21397;-62
2021/04/13 00:27:23;;;;;;;37.10;27.40;;;;;;;9.06;69.75;99630.30;1755823;81;21070;-62
2021/04/13 00:29:50;;;;;;;40.38;28.05;;;;;;;9.08;69.76;99631.55;1755859;81;21058;-63
2021/04/13 00:32:22;;;;;;;56.65;26.93;;;;;;;9.09;69.76;99632.80;1755854;81;21154;-64
2021/04/13 00:34:57;;;;;;;42.48;28.50;;;;;;;9.06;69.80;99631.59;1755908;80;21071;-62
2021/04/13 00:37:25;;;;;;;37.73;27.67;;;;;;;9.04;70.00;99628.64;1755676;80;21219;-63
2021/04/13 00:39:59;;;;;;;35.48;26.93;;;;;;;9.01;70.11;99633.93;1755443;80;21151;-63
2021/04/13 00:42:30;;;;;;;36.65;27.93;;;;;;;8.99;70.20;99628.82;1754068;81;21092;-62
2021/04/13 00:45:03;;;;;;;37.73;29.27;;;;;;;8.97;70.29;99634.05;1761046;81;21582;-62
2021/04/13 00:47:34;;;;;;;40.58;28.95;;;;;;;8.96;70.40;99627.17;1759338;80;21061;-62
2021/04/13 00:50:32;;;;;;;38.98;29.02;;;;;;;8.95;70.51;99628.06;1736605;81;26361;-62
2021/04/13 00:53:02;;;;;;;38.33;27.60;;;;;;;8.96;70.56;99630.21;1760950;81;21074;-62
2021/04/13 00:55:38;;;;;;;35.20;26.85;;;;;;;8.93;70.63;99626.41;1736840;81;21051;-62
2021/04/13 00:58:20;;;;;;;39.13;28.98;;;;;;;8.90;70.75;99627.80;1736757;81;21138;-62
2021/04/13 01:00:56;;;;;;;36.57;29.07;;;;;;;8.87;70.96;99627.90;1757941;81;21101;-63
2021/04/13 01:03:26;;;;;;;40.35;30.43;;;;;;;8.85;71.15;99624.05;1726848;81;21398;-62
2021/04/13 01:05:57;;;;;;;45.67;32.73;;;;;;;8.84;71.27;99621.51;1759658;81;21099;-62
2021/04/13 01:08:35;;;;;;;42.95;31.57;;;;;;;8.84;71.37;99615.88;1759682;80;21149;-62
2021/04/13 01:11:20;;;;;;;49.13;32.45;;;;;;;8.86;71.37;99621.02;1759666;81;21070;-62
2021/04/13 01:13:53;;;;;;;44.40;30.60;;;;;;;8.84;71.48;99616.32;1759658;81;21169;-62
2021/04/13 01:16:26;;;;;;;41.48;29.10;;;;;;;8.84;71.49;99620.21;1759668;81;21506;-62
2021/04/13 01:18:56;;;;;;;41.88;30.30;;;;;;;8.85;71.57;99616.27;1759515;80;21169;-62
2021/04/13 01:21:42;;;;;;;42.53;31.60;;;;;;;8.84;71.64;99619.77;1759578;81;21149;-62
2021/04/13 01:24:21;;;;;;;36.88;29.85;;;;;;;8.84;71.66;99616.32;1759622;81;21074;-62
2021/04/13 01:26:45;;;;;;;44.23;32.40;;;;;;;8.84;71.76;99619.77;1759616;81;21058;-62
2021/04/13 01:29:18;;;;;;;44.42;30.88;;;;;;;8.84;71.86;99610.69;1759734;80;21357;-62
2021/04/13 01:31:53;;;;;;;43.83;32.42;;;;;;;8.87;71.86;99617.08;1759714;80;21204;-62
2021/04/13 01:34:44;;;;;;;41.28;30.55;;;;;;;8.87;71.85;99612.34;1759868;81;21053;-62
2021/04/13 01:37:22;;;;;;;43.02;30.90;;;;;;;8.88;71.83;99619.22;1730661;81;21487;-62
2021/04/13 01:39:50;;;;;;;43.55;31.33;;;;;;;8.89;71.85;99617.88;1759550;81;21666;-62
2021/04/13 01:42:13;;;;;;;47.78;32.20;;;;;;;8.88;71.88;99601.91;1759510;81;21507;-63
2021/04/13 01:44:47;;;;;;;46.10;31.87;;;;;;;8.88;71.94;99605.80;1755957;81;21082;-62
2021/04/13 01:47:18;;;;;;;39.60;30.85;;;;;;;8.89;71.95;99607.95;1756005;81;21181;-62
2021/04/13 01:49:52;;;;;;;45.08;31.60;;;;;;;8.88;72.00;99604.95;1753441;80;21585;-62
2021/04/13 01:52:40;;;;;;;48.78;32.38;;;;;;;8.86;72.04;99603.70;1756028;81;21090;-62
2021/04/13 01:55:13;;;;;;;43.70;30.55;;;;;;;8.83;72.14;99604.25;1755978;81;21308;-61
2021/04/13 01:58:18;;;;;;;44.30;31.35;;;;;;;8.80;72.27;99607.78;1753443;81;21098;-62
2021/04/13 02:01:11;;;;;;;40.65;29.72;;;;;;;8.80;72.42;99607.78;1755958;81;21174;-62
2021/04/13 02:03:48;;;;;;;41.68;31.33;;;;;;;8.78;72.59;99603.13;1755941;81;21086;-62
2021/04/13 02:06:36;;;;;;;52.40;33.73;;;;;;;8.79;72.57;99606.56;1756018;80;21129;-62
2021/04/13 02:09:23;;;;;;;43.92;33.50;;;;;;;8.75;72.63;99605.81;1755961;81;21144;-61
2021/04/13 02:11:44;;;;;;;41.20;31.40;;;;;;;8.73;72.79;99609.34;1755777;81;21090;-62
2021/04/13 02:14:14;;;;;;;42.75;32.28;;;;;;;8.73;72.85;99606.30;1755935;81;21054;-62
2021/04/13 02:17:11;;;;;;;42.73;31.05;;;;;;;8.73;72.90;99608.90;1756060;81;21056;-62
2021/04/13 02:19:49;;;;;;;49.45;33.85;;;;;;;8.74;73.01;99601.52;1755999;80;21065;-61
2021/04/13 02:22:19;;;;;;;42.15;31.37;;;;;;;8.77;72.99;99604.47;1755944;81;22394;-62
2021/04/13 02:24:49;;;;;;;47.17;33.70;;;;;;;8.79;72.95;99594.42;1755868;80;21125;-62
2021/04/13 02:27:24;;;;;;;46.40;31.75;;;;;;;8.80;72.90;99600.45;1756021;80;21149;-62
2021/04/13 02:29:54;;;;;;;50.23;33.28;;;;;;;8.78;72.97;99595.34;1755903;81;21087;-62
2021/04/13 02:32:29;;;;;;;39.73;29.70;;;;;;;8.77;73.03;99593.64;1755999;80;21046;-61
2021/04/13 02:35:04;;;;;;;46.20;31.77;;;;;;;8.78;73.11;99589.31;1755964;81;21409;-61
2021/04/13 02:37:35;;;;;;;47.43;33.42;;;;;;;8.77;73.19;99586.31;1755854;80;21066;-61
2021/04/13 02:40:07;;;;;;;46.35;31.87;;;;;;;8.76;73.23;99589.80;1756204;81;21038;-63
2021/04/13 02:42:38;;;;;;;46.53;32.80;;;;;;;8.75;73.27;99586.81;1755900;80;21162;-64
2021/04/13 02:45:11;;;;;;;46.42;33.02;;;;;;;8.74;73.34;99585.11;1759736;80;21221;-63
2021/04/13 02:47:46;;;;;;;46.37;32.42;;;;;;;8.73;73.38;99585.56;1759695;80;21198;-63
2021/04/13 02:50:16;;;;;;;48.73;31.70;;;;;;;8.75;73.44;99585.52;1736098;81;21086;-63
2021/04/13 02:52:50;;;;;;;47.93;31.75;;;;;;;8.79;73.47;99581.93;1759650;81;21176;-63
2021/04/13 02:55:28;;;;;;;41.02;31.80;;;;;;;8.82;73.41;99585.25;1759703;81;21098;-63
2021/04/13 02:57:56;;;;;;;47.65;32.15;;;;;;;8.84;73.41;99580.01;1759737;80;21117;-61
2021/04/13 03:00:29;;;;;;;42.62;33.63;;;;;;;8.87;73.35;99580.77;1759690;81;22357;-61
2021/04/13 03:03:06;;;;;;;43.50;32.65;;;;;;;8.91;73.28;99584.11;1759405;81;21117;-61
2021/04/13 03:05:35;;;;;;;48.13;33.80;;;;;;;8.98;73.05;99576.09;1759704;81;21146;-62
2021/04/13 03:08:08;;;;;;;53.92;33.50;;;;;;;9.02;72.85;99577.25;1759663;80;21222;-62
2021/04/13 03:10:43;;;;;;;42.67;32.67;;;;;;;9.01;72.75;99579.00;1759502;81;21160;-62
2021/04/13 03:13:17;;;;;;;45.05;30.92;;;;;;;9.03;72.66;99572.47;1759698;80;21362;-62
2021/04/13 03:15:58;;;;;;;44.00;30.95;;;;;;;9.05;72.54;99571.52;1759613;81;21553;-62
2021/04/13 03:18:34;;;;;;;47.20;33.33;;;;;;;9.09;72.47;99575.72;1754253;81;21121;-62
2021/04/13 03:21:09;;;;;;;47.90;33.42;;;;;;;9.12;72.38;99573.47;1759660;81;21490;-62
2021/04/13 03:23:37;;;;;;;45.92;32.38;;;;;;;9.16;72.25;99577.66;1759515;81;21153;-62
2021/04/13 03:26:17;;;;;;;48.25;33.45;;;;;;;9.19;72.12;99581.45;1759609;81;21351;-62
2021/04/13 03:28:54;;;;;;;43.48;33.23;;;;;;;9.24;71.91;99583.42;1759636;80;21116;-62
2021/04/13 03:31:22;;;;;;;48.75;32.80;;;;;;;9.26;71.74;99584.22;1759705;81;21049;-62
2021/04/13 03:33:50;;;;;;;43.15;30.40;;;;;;;9.25;71.60;99587.71;1759643;81;21482;-62
2021/04/13 03:36:21;;;;;;;40.17;29.42;;;;;;;9.22;71.55;99586.52;1736303;81;21121;-63
2021/04/13 03:38:53;;;;;;;41.63;30.27;;;;;;;9.15;71.66;99587.19;1759677;81;21198;-62
2021/04/13 03:41:20;;;;;;;43.13;30.37;;;;;;;9.10;71.89;99596.87;1712677;81;21085;-62
2021/04/13 03:43:51;;;;;;;47.45;31.93;;;;;;;9.09;72.06;99599.06;1759444;81;21129;-62
2021/04/13 03:46:20;;;;;;;49.63;31.93;;;;;;;9.04;72.20;99602.25;1759933;80;21058;-62
2021/04/13 03:48:49;;;;;;;44.10;31.30;;;;;;;9.04;72.20;99602.25;1759640;81;21806;-64
2021/04/13 03:51:30;;;;;;;40.60;30.80;;;;;;;8.99;72.35;99601.58;1759613;80;21375;-62
2021/04/13 03:53:58;;;;;;;39.10;28.60;;;;;;;8.92;72.58;99600.08;1759544;81;21176;-62
2021/04/13 03:56:26;;;;;;;43.33;29.48;;;;;;;8.86;72.84;99600.27;1759593;80;21491;-62
2021/04/13 03:58:56;;;;;;;46.45;31.02;;;;;;;8.81;73.12;99596.52;1759718;81;21065;-62
2021/04/13 04:01:30;;;;;;;39.63;30.45;;;;;;;8.76;73.34;99594.98;1759656;80;21189;-63
2021/04/13 04:04:03;;;;;;;46.75;31.12;;;;;;;8.75;73.50;99594.14;1759758;81;21360;-62
2021/04/13 04:06:50;;;;;;;43.68;30.15;;;;;;;8.72;73.73;99596.83;1759603;81;21090;-62
2021/04/13 04:09:19;;;;;;;41.65;30.70;;;;;;;8.77;73.78;99601.42;1759568;81;21180;-62
2021/04/13 04:11:46;;;;;;;53.52;30.15;;;;;;;8.81;73.73;99600.41;1759702;81;21101;-62
2021/04/13 04:14:17;;;;;;;41.05;29.02;;;;;;;8.84;73.68;99601.61;1759636;81;21468;-62
2021/04/13 04:16:45;;;;;;;46.15;29.37;;;;;;;8.91;73.61;99607.01;1759638;81;21432;-62
2021/04/13 04:19:22;;;;;;;44.60;29.95;;;;;;;8.97;73.53;99602.08;1759543;80;21071;-62
2021/04/13 04:22:03;;;;;;;41.73;30.27;;;;;;;9.02;73.45;99602.75;1759747;81;21486;-62
2021/04/13 04:24:40;;;;;;;44.88;30.40;;;;;;;9.08;73.42;99608.20;1759602;81;21074;-62
2021/04/13 04:27:17;;;;;;;49.60;31.33;;;;;;;9.14;73.24;99610.15;1759613;81;21082;-62
2021/04/13 04:29:52;;;;;;;41.88;29.48;;;;;;;9.16;73.03;99609.65;1759642;81;21921;-62
2021/04/13 04:32:34;;;;;;;55.23;30.80;;;;;;;9.18;72.96;99604.41;1734223;81;21094;-61
2021/04/13 04:35:05;;;;;;;51.25;29.05;;;;;;;9.20;72.87;99598.69;1759620;80;21241;-62
2021/04/13 04:37:50;;;;;;;63.90;31.50;;;;;;;9.19;72.86;99601.73;1759571;80;21034;-63
2021/04/13 04:40:30;;;;;;;48.73;30.37;;;;;;;9.24;72.94;99604.18;1759649;81;21114;-62
2021/04/13 04:43:02;;;;;;;49.25;32.53;;;;;;;9.27;72.76;99598.89;1759574;81;21200;-62
2021/04/13 04:45:39;;;;;;;67.70;34.43;;;;;;;9.30;72.76;99599.64;1744179;81;21091;-61
2021/04/13 04:48:34;;;;;;;46.10;30.37;;;;;;;9.37;72.63;99599.44;1740668;81;21126;-62
2021/04/13 04:51:11;;;;;;;50.78;31.05;;;;;;;9.43;72.35;99594.02;1744117;81;21086;-61
2021/04/13 04:53:41;;;;;;;54.05;30.48;;;;;;;9.48;72.12;99596.86;1744224;81;21605;-62
2021/04/13 04:56:11;;;;;;;51.42;30.65;;;;;;;9.52;72.01;99594.55;1744016;82;22276;-62
2021/04/13 04:58:39;;;;;;;44.85;30.25;;;;;;;9.55;71.85;99593.16;1743971;82;21522;-63
2021/04/13 05:01:07;;;;;;;59.70;30.72;;;;;;;9.60;71.79;99586.02;1743509;82;21199;-62
2021/04/13 05:03:41;;;;;;;47.98;31.57;;;;;;;9.62;71.61;99585.52;1744113;82;21136;-61
2021/04/13 05:06:09;;;;;;;49.90;31.30;;;;;;;9.63;71.66;99583.32;1744331;81;21557;-61
2021/04/13 05:08:37;;;;;;;55.28;32.13;;;;;;;9.67;71.51;99589.27;1744336;81;21430;-62
2021/04/13 05:11:05;;;;;;;48.13;30.88;;;;;;;9.69;71.40;99591.36;1744206;81;21179;-62
2021/04/13 05:13:32;;;;;;;58.23;33.08;;;;;;;9.74;71.22;99593.80;1744230;82;21090;-62
2021/04/13 05:16:00;;;;;;;46.10;29.72;;;;;;;9.76;71.12;99599.34;1742474;80;21124;-64
2021/04/13 05:18:27;;;;;;;47.48;29.75;;;;;;;9.78;71.15;99597.53;1713314;82;21579;-64
2021/04/13 05:20:55;;;;;;;48.90;28.83;;;;;;;9.79;71.05;99597.89;1713614;83;21392;-62
2021/04/13 05:23:24;;;;;;;42.25;29.90;;;;;;;9.82;70.94;99599.54;1714054;83;21082;-62
2021/04/13 05:25:51;;;;;;;56.90;31.27;;;;;;;9.87;70.98;99598.48;1714210;83;21061;-63
2021/04/13 05:28:19;;;;;;;57.45;30.32;;;;;;;9.93;70.77;99597.41;1714308;83;21570;-62
2021/04/13 05:30:49;;;;;;;50.00;29.77;;;;;;;9.99;70.73;99601.91;1714220;83;21125;-63
2021/04/13 05:33:17;;;;;;;53.58;32.10;;;;;;;10.06;70.56;99597.80;1714244;83;22787;-62
2021/04/13 05:35:45;;;;;;;48.60;29.37;;;;;;;10.11;70.38;99594.58;1714221;82;21614;-63
2021/04/13 05:38:18;;;;;;;49.38;29.90;;;;;;;10.16;70.15;99586.17;1714279;83;21091;-63
2021/04/13 05:40:49;;;;;;;43.68;30.43;;;;;;;10.21;69.93;99592.89;1714272;83;21139;-64
2021/04/13 05:43:25;;;;;;;42.13;28.87;;;;;;;10.23;69.76;99583.29;1714286;82;21103;-63
2021/04/13 05:45:56;;;;;;;34.33;26.68;;;;;;;10.27;69.61;99588.77;1708066;82;21543;-62
2021/04/13 05:48:23;;;;;;;41.70;27.95;;;;;;;10.34;69.43;99586.80;1662219;84;21090;-63
2021/04/13 05:50:51;;;;;;;52.88;30.68;;;;;;;10.39;69.31;99586.62;1684017;84;21081;-63
2021/04/13 05:53:19;;;;;;;41.58;28.32;;;;;;;10.39;69.22;99586.17;1661655;84;21153;-62
2021/04/13 05:55:48;;;;;;;41.35;27.58;;;;;;;10.41;69.13;99586.93;1708110;84;21166;-65
2021/04/13 05:58:20;;;;;;;53.92;28.92;;;;;;;10.44;68.98;99584.22;1708078;84;21403;-63
2021/04/13 06:00:51;;;;;;;69.62;30.65;;;;;;;10.45;69.06;99581.16;1697299;84;21118;-62
2021/04/13 06:03:20;;;;;;;43.58;27.77;;;;;;;10.49;69.08;99586.64;1697257;84;21543;-64
2021/04/13 06:05:48;;;;;;;40.65;28.25;;;;;;;10.54;68.89;99581.66;1697217;83;21138;-62
2021/04/13 06:08:17;;;;;;;44.20;28.25;;;;;;;10.58;68.79;99583.70;1697273;84;21235;-62
2021/04/13 06:10:45;;;;;;;40.55;26.60;;;;;;;10.56;68.59;99581.16;1697196;84;21190;-62
2021/04/13 06:13:13;;;;;;;39.83;27.05;;;;;;;10.57;68.68;99580.70;1697184;84;21118;-62
2021/04/13 06:15:41;;;;;;;39.10;27.55;;;;;;;10.56;68.66;99581.61;1697152;84;21079;-63
2021/04/13 06:18:09;;;;;;;42.48;28.67;;;;;;;10.58;68.66;99581.94;1697188;83;21523;-61
2021/04/13 06:20:37;;;;;;;40.45;29.05;;;;;;;10.62;68.58;99582.19;1697210;84;21102;-62
2021/04/13 06:23:05;;;;;;;49.55;28.55;;;;;;;10.65;68.52;99583.83;1697239;84;21385;-62
2021/04/13 06:25:33;;;;;;;39.85;27.82;;;;;;;10.65;68.53;99582.07;1697260;84;21094;-62
2021/04/13 06:28:01;;;;;;;43.73;28.50;;;;;;;10.66;68.31;99582.47;1697225;83;21058;-62
2021/04/13 06:30:30;;;;;;;42.90;28.23;;;;;;;10.64;68.29;99580.38;1697232;84;21099;-63
2021/04/13 06:33:00;;;;;;;49.48;29.75;;;;;;;10.65;68.23;99579.92;1697264;84;21090;-63
2021/04/13 06:35:28;;;;;;;54.23;29.95;;;;;;;10.64;68.38;99577.77;1697228;83;21527;-64
2021/04/13 06:38:00;;;;;;;46.23;27.58;;;;;;;10.64;68.43;99584.73;1697124;83;21150;-63
2021/04/13 06:40:51;;;;;;;42.48;27.82;;;;;;;10.64;68.49;99579.08;1674511;84;21151;-62
2021/04/13 06:44:04;;;;;;;44.53;27.75;;;;;;;10.64;68.55;99586.88;1697207;84;21115;-63
2021/04/13 06:46:52;;;;;;;41.20;29.00;;;;;;;10.68;68.59;99583.25;1697241;83;21075;-62
2021/04/13 06:50:16;;;;;;;37.80;28.20;;;;;;;10.70;68.61;99585.34;1697235;83;21356;-62
2021/04/13 06:53:34;;;;;;;44.20;29.10;;;;;;;10.69;68.69;99581.05;1697268;84;21074;-62
2021/04/13 06:56:36;;;;;;;39.40;29.02;;;;;;;10.67;68.96;99582.02;1697221;84;21078;-62
2021/04/13 06:59:27;;;;;;;39.00;29.72;;;;;;;10.63;69.20;99586.48;1696548;84;21107;-63
2021/04/13 07:02:00;;;;;;;37.48;27.35;;;;;;;10.60;69.62;99584.00;1697351;83;21178;-62
2021/04/13 07:04:51;;;;;;;34.15;27.55;;;;;;;10.60;70.00;99580.10;1697430;83;22226;-62
2021/04/13 07:07:31;;;;;;;42.62;30.68;;;;;;;10.56;70.45;99587.66;1697183;84;21488;-63
2021/04/13 07:10:19;;;;;;;39.42;28.85;;;;;;;10.54;71.11;99594.67;1697114;84;21082;-63
2021/04/13 07:13:21;;;;;;;39.20;29.35;;;;;;;10.54;71.41;99585.56;1697140;84;21141;-63
2021/04/13 07:16:04;;;;;;;37.50;29.70;;;;;;;10.53;71.74;99595.58;1697299;84;21519;-62
2021/04/13 07:19:00;;;;;;;38.95;29.45;;;;;;;10.53;72.36;99589.07;1697285;84;21441;-62
2021/04/13 07:21:57;;;;;;;40.45;27.95;;;;;;;10.54;72.42;99596.42;1697096;83;21155;-62
2021/04/13 07:24:41;;;;;;;38.60;29.48;;;;;;;10.53;72.65;99598.17;1677498;84;21605;-64
2021/04/13 07:27:18;;;;;;;38.83;29.75;;;;;;;10.55;73.22;99599.41;1697192;84;21610;-62
2021/04/13 07:29:53;;;;;;;40.50;31.60;;;;;;;10.55;73.44;99599.41;1697302;84;21126;-62
2021/04/13 07:32:22;;;;;;;49.15;30.23;;;;;;;10.56;73.98;99598.52;1697281;84;22253;-63
2021/04/13 07:34:56;;;;;;;41.15;29.15;;;;;;;10.58;74.16;99598.00;1697129;84;21547;-62
2021/04/13 07:37:42;;;;;;;41.55;31.60;;;;;;;10.60;74.13;99596.16;1697142;83;21169;-62
2021/04/13 07:40:18;;;;;;;40.60;27.27;;;;;;;10.63;74.39;99594.74;1697213;83;21075;-63
2021/04/13 07:42:58;;;;;;;41.25;29.48;;;;;;;10.67;74.27;99601.06;1694697;84;21158;-61
2021/04/13 07:46:06;;;;;;;40.90;31.68;;;;;;;10.64;74.59;99597.28;1697148;83;22374;-63
2021/04/13 07:48:55;;;;;;;43.38;31.82;;;;;;;10.67;75.05;99589.81;1697135;84;21090;-63
2021/04/13 07:51:39;;;;;;;44.80;31.25;;;;;;;10.69;75.27;99595.81;1703599;82;21561;-65
2021/04/13 07:54:39;;;;;;;42.85;31.93;;;;;;;10.72;75.23;99591.79;1707342;83;21132;-63
2021/04/13 07:57:37;;;;;;;38.90;30.45;;;;;;;10.73;75.26;99594.78;1719161;81;21117;-64
2021/04/13 08:00:40;;;;;;;41.77;31.42;;;;;;;10.75;75.33;99591.67;1698830;83;21122;-62
2021/04/13 08:03:26;;;;;;;51.10;37.20;;;;;;;10.76;75.65;99595.97;1729914;81;21075;-63
2021/04/13 08:06:07;;;;;;;41.63;32.40;;;;;;;10.83;75.75;99596.09;1703353;82;21585;-62
2021/04/13 08:08:41;;;;;;;45.28;34.53;;;;;;;10.89;75.50;99604.11;1707435;82;21184;-62
2021/04/13 08:11:16;;;;;;;45.95;33.63;;;;;;;10.94;75.48;99600.88;1703769;83;21137;-63
2021/04/13 08:13:52;;;;;;;43.95;33.98;;;;;;;10.96;75.40;99599.91;1683962;85;21220;-64
2021/04/13 08:16:34;;;;;;;41.28;31.57;;;;;;;11.00;75.20;99596.25;1695062;84;21684;-63
2021/04/13 08:19:28;;;;;;;40.38;31.75;;;;;;;11.01;75.40;99593.19;1695691;84;21509;-63
2021/04/13 08:22:16;;;;;;;40.20;30.80;;;;;;;11.05;75.35;99598.22;1695545;84;21179;-62
2021/04/13 08:24:53;;;;;;;39.70;31.45;;;;;;;10.99;75.29;99584.14;1695529;84;21081;-61
2021/04/13 08:27:45;;;;;;;36.15;29.27;;;;;;;10.97;75.44;99587.74;1695524;84;21345;-62
2021/04/13 08:30:42;;;;;;;36.90;28.35;;;;;;;10.99;75.41;99582.02;1695709;84;28192;-62
2021/04/13 08:33:35;;;;;;;37.98;28.95;;;;;;;11.04;75.12;99585.27;1671708;84;21124;-62
2021/04/13 08:36:29;;;;;;;39.75;30.62;;;;;;;11.08;75.20;99579.48;1695624;83;21089;-63
2021/04/13 08:39:15;;;;;;;45.05;30.02;;;;;;;11.06;74.99;99579.54;1695781;84;21104;-62
2021/04/13 08:41:48;;;;;;;37.33;29.00;;;;;;;11.04;75.06;99575.70;1695121;84;21227;-62
2021/04/13 08:44:34;;;;;;;36.17;27.35;;;;;;;11.03;75.21;99575.76;1695576;84;21183;-62
2021/04/13 08:47:21;;;;;;;34.67;26.90;;;;;;;11.03;75.43;99573.16;1726086;83;21105;-62
2021/04/13 08:49:58;;;;;;;34.10;27.75;;;;;;;10.98;75.53;99582.48;1726237;83;21143;-63
2021/04/13 08:52:44;;;;;;;40.12;29.42;;;;;;;10.97;75.96;99578.18;1701780;83;21201;-63
2021/04/13 08:55:19;;;;;;;40.55;29.67;;;;;;;11.01;76.02;99571.91;1726190;81;21207;-63
2021/04/13 08:58:14;;;;;;;41.13;30.62;;;;;;;11.03;75.92;99571.85;1726292;83;21113;-63
2021/04/13 09:00:48;;;;;;;36.33;27.93;;;;;;;11.03;76.12;99567.49;1703345;83;21209;-64
2021/04/13 09:03:20;;;;;;;38.20;28.00;;;;;;;11.00;75.68;99566.31;1726162;81;21196;-63
2021/04/13 09:05:51;;;;;;;;;;;;;;;10.98;75.97;99565.56;1728493;81;21149;-64
2021/04/13 09:08:32;;;;;;;36.93;28.23;;;;;;;11.03;75.83;99567.49;1701925;83;21395;-63
2021/04/13 09:11:47;;;;;;;40.98;31.00;;;;;;;11.05;75.54;99560.47;1726151;83;21098;-64
2021/04/13 09:14:40;;;;;;;44.45;30.80;;;;;;;11.09;75.44;99566.41;1726177;83;21086;-63
2021/04/13 09:17:21;;;;;;;38.27;27.80;;;;;;;11.18;75.39;99558.67;1724068;81;22105;-65
2021/04/13 09:19:57;;;;;;;45.25;31.65;;;;;;;11.22;74.87;99564.11;1723724;83;21152;-64
2021/04/13 09:22:30;;;;;;;45.52;31.97;;;;;;;11.24;75.12;99564.45;1717088;83;21563;-63
2021/04/13 09:25:34;;;;;;;38.85;29.20;;;;;;;11.27;75.09;99563.02;1725928;83;21573;-63
2021/04/13 09:28:19;;;;;;;46.23;31.82;;;;;;;11.30;74.79;99567.25;1726214;83;21098;-63
2021/04/13 09:30:57;;;;;;;43.52;31.30;;;;;;;11.24;74.49;99563.14;1726405;83;28543;-63
2021/04/13 09:33:36;;;;;;;43.65;31.77;;;;;;;11.20;74.65;99562.03;1725135;81;21221;-64
2021/04/13 09:36:37;;;;;;;40.30;29.80;;;;;;;11.19;74.89;99570.78;1723790;81;21369;-64
2021/04/13 09:39:33;;;;;;;39.88;30.68;;;;;;;11.15;74.80;99563.55;1722917;82;21654;-63
2021/04/13 09:42:32;;;;;;;45.12;30.77;;;;;;;11.11;75.16;99560.68;1752500;81;21158;-65
2021/04/13 09:45:42;;;;;;;48.58;33.15;;;;;;;11.09;75.44;99559.05;1729080;81;21638;-64
2021/04/13 09:48:21;;;;;;;41.92;31.77;;;;;;;11.09;75.63;99564.25;1724386;81;21146;-64
2021/04/13 09:51:15;;;;;;;40.38;30.25;;;;;;;11.07;75.69;99561.71;1759446;81;21530;-63
2021/04/13 09:54:00;;;;;;;43.33;31.10;;;;;;;11.02;75.76;99557.14;1759365;81;21197;-65
2021/04/13 10:01:17;;;;;;;46.13;31.48;;;;;;;10.98;76.36;99551.70;1759642;80;21157;-63
2021/04/13 10:04:29;;;;;;;43.20;31.65;;;;;;;10.99;76.27;99552.09;1745482;81;21181;-62
2021/04/13 10:07:24;;;;;;;42.78;27.58;;;;;;;10.98;76.61;99551.70;1759366;81;21645;-64
2021/04/13 10:09:52;;;;;;;38.15;28.67;;;;;;;11.00;76.82;99551.16;1729390;83;21097;-63
2021/04/13 10:13:00;;;;;;;35.83;27.10;;;;;;;11.01;76.90;99556.75;1729372;81;21517;-63
2021/04/13 10:15:39;;;;;;;39.70;28.85;;;;;;;11.01;76.83;99550.25;1729261;83;21169;-64
2021/04/13 10:18:32;;;;;;;38.45;29.02;;;;;;;11.02;76.82;99552.78;1726295;82;21229;-65
2021/04/13 10:21:39;;;;;;;34.00;26.17;;;;;;;11.05;76.91;99555.27;1723856;83;23206;-64
2021/04/13 10:24:45;;;;;;;36.00;27.42;;;;;;;11.09;76.94;99549.48;1729287;83;21166;-63
2021/04/13 10:27:58;;;;;;;38.17;26.57;;;;;;;11.04;77.19;99547.52;1742001;80;21070;-64
2021/04/13 10:31:14;;;;;;;38.83;27.27;;;;;;;11.05;77.29;99550.06;1756587;80;21186;-62
2021/04/13 10:34:12;;;;;;;38.85;27.15;;;;;;;11.04;77.32;99552.27;1759052;81;21125;-60
2021/04/13 10:37:45;;;;;;;34.50;25.20;;;;;;;10.98;77.43;99549.10;1758956;81;22099;-64
2021/04/13 10:41:39;;;;;;;33.20;24.25;;;;;;;10.99;77.68;99547.70;1732677;81;21196;-65
2021/04/13 10:44:26;;;;;;;35.90;25.45;;;;;;;11.09;77.73;99552.09;1759212;80;21089;-64
2021/04/13 10:47:24;;;;;;;40.70;25.75;;;;;;;11.17;77.72;99549.17;1759455;80;21121;-62
2021/04/13 10:50:42;;;;;;;30.40;22.32;;;;;;;11.25;77.58;99552.27;1759604;80;21077;-63
2021/04/13 10:53:41;;;;;;;30.45;20.57;;;;;;;11.30;77.45;99543.81;1759582;81;22055;-62
2021/04/13 10:56:39;;;;;;;28.02;19.77;;;;;;;11.29;77.14;99546.88;1759387;80;21557;-61
2021/04/13 10:59:38;;;;;;;29.72;19.52;;;;;;;11.32;77.11;99548.50;1759585;80;21154;-61
2021/04/13 11:02:48;;;;;;;24.80;18.40;;;;;;;11.34;77.05;99543.63;1730813;81;21137;-63
2021/04/13 11:05:34;;;;;;;21.40;14.75;;;;;;;11.34;76.90;99547.53;1759588;81;21565;-64
2021/04/13 11:08:23;;;;;;;19.70;16.48;;;;;;;11.24;76.85;99541.47;1759585;80;23441;-64
2021/04/13 11:11:22;;;;;;;17.12;14.30;;;;;;;11.15;76.95;99547.94;1759621;80;21210;-62
2021/04/13 11:14:35;;;;;;;19.98;15.30;;;;;;;11.10;77.10;99543.82;1759614;81;21502;-62
2021/04/13 11:17:37;;;;;;;20.57;16.07;;;;;;;11.02;77.59;99541.08;1758549;81;21188;-62
2021/04/13 11:20:34;;;;;;;20.50;16.55;;;;;;;10.99;78.12;99537.30;1759586;80;21597;-63
2021/04/13 11:23:42;;;;;;;22.55;16.45;;;;;;;10.99;78.62;99536.48;1759539;81;21234;-63
2021/04/13 11:26:33;;;;;;;18.50;14.35;;;;;;;11.03;78.73;99536.72;1759473;81;21543;-63
2021/04/13 11:29:36;;;;;;;16.67;13.72;;;;;;;11.03;78.47;99532.81;1733824;81;21475;-63
2021/04/13 11:32:25;;;;;;;21.27;18.95;;;;;;;11.00;78.70;99531.64;1725230;81;21058;-63
2021/04/13 11:35:16;;;;;;;18.75;15.23;;;;;;;10.96;79.08;99531.40;1759671;81;21502;-63
2021/04/13 11:38:13;;;;;;;16.97;15.08;;;;;;;11.03;79.36;99531.05;1759478;80;21498;-63
2021/04/13 11:40:52;;;;;;;16.82;13.62;;;;;;;11.14;79.31;99531.92;1758067;81;21101;-63
2021/04/13 11:43:23;;;;;;;16.97;13.50;;;;;;;11.30;79.35;99532.10;1722590;81;21078;-64
2021/04/13 11:46:08;;;;;;;14.85;13.28;;;;;;;11.40;79.15;99532.92;1758022;80;21645;-64
2021/04/13 11:49:02;;;;;;;15.78;13.98;;;;;;;11.49;78.79;99531.69;1750571;80;21499;-64
2021/04/13 11:51:49;;;;;;;17.00;15.20;;;;;;;11.56;78.64;99533.11;1750495;82;21490;-63
2021/04/13 11:54:53;;;;;;;17.65;15.75;;;;;;;11.55;78.40;99531.42;1750368;80;21554;-62
2021/04/13 11:57:34;;;;;;;16.75;15.05;;;;;;;11.50;78.43;99533.83;1750407;81;21483;-61
2021/04/13 12:00:19;;;;;;;16.20;14.60;;;;;;;11.42;78.18;99528.95;1718344;82;21086;-63
2021/04/13 12:02:50;;;;;;;14.58;12.85;;;;;;;11.32;78.60;99528.52;1750525;80;21562;-65
2021/04/13 12:05:35;;;;;;;14.98;13.30;;;;;;;11.31;78.90;99523.38;1747653;80;21937;-63
2021/04/13 12:08:04;;;;;;;18.42;16.37;;;;;;;11.31;78.64;99524.22;1750225;82;21097;-63
2021/04/13 12:10:38;;;;;;;17.45;14.33;;;;;;;11.33;78.60;99521.10;1750417;82;21058;-64
2021/04/13 12:13:09;;;;;;;16.70;14.18;;;;;;;11.38;78.54;99518.30;1750359;81;21174;-62
2021/04/13 12:15:50;;;;;;;16.75;15.05;;;;;;;11.46;78.42;99513.58;1750389;82;21079;-62
2021/04/13 12:18:41;;;;;;;20.10;17.07;;;;;;;11.48;78.25;99514.81;1750509;80;21106;-62
2021/04/13 12:21:28;;;;;;;18.95;16.95;;;;;;;11.49;78.10;99508.24;1747987;81;21214;-63
2021/04/13 12:24:05;;;;;;;19.05;16.95;;;;;;;11.50;77.59;99511.23;1742583;81;22247;-64
2021/04/13 12:26:43;;;;;;;20.37;16.77;;;;;;;11.48;77.69;99514.81;1744933;81;21056;-62
2021/04/13 12:29:31;;;;;;;20.45;17.25;;;;;;;11.49;77.69;99506.09;1746249;82;21473;-63